Flight Track Log - Related Links

Times and Time Zones

All times are in EDT time to prevent confusion due to time zone crossing. See the SKW5550 flight status page for this flight to view local times or setup timezone preferences in your user account.


Time Position Orientation Groundspeed Altitude Reporting Facility
EDT Latitude Longitude Course Direction KTS MPH feet Rate Location/Type
Thu 07:56:05 AM 44.5856 -108.9264 163° South 237 273 8,300  Level Salt Lake Center
Thu 07:57:05 AM 44.5158 -108.8958 163° South 260 299 10,100 1,537 Climbing Salt Lake Center
Thu 07:58:06 AM 44.4356 -108.8628 164° South 282 325 11,400 1,438 Climbing Salt Lake Center
Thu 07:59:06 AM 44.3519 -108.8122 157° South 303 349 13,000 1,650 Climbing Salt Lake Center
Thu 08:00:06 AM 44.2658 -108.7594 156° South 326 375 14,700 1,600 Climbing Salt Lake Center
Thu 08:01:06 AM 44.1783 -108.7100 158° South 334 384 16,200 1,488 Climbing Salt Lake Center
Thu 08:02:07 AM 44.0889 -108.6581 157° South 344 396 17,700 1,140 Climbing Salt Lake Center
Thu 08:03:07 AM 43.9981 -108.6056 157° South 351 404 18,500 1,000 Climbing Salt Lake Center
Thu 08:04:07 AM 43.9058 -108.5531 158° South 357 411 19,700 942 Climbing Salt Lake Center
Thu 08:05:08 AM 43.8125 -108.4994 157° South 362 417 20,400 744 Climbing Salt Lake Center
Thu 08:06:08 AM 43.7175 -108.4447 157° South 368 423 21,200 700 Climbing Salt Lake Center
Thu 08:07:08 AM 43.6239 -108.3922 158° South 364 419 21,800 550 Climbing Salt Lake Center
Thu 08:08:08 AM 43.5292 -108.3397 158° South 367 422 22,300 545 Climbing Salt Lake Center
Thu 08:09:09 AM 43.4347 -108.2761 154° Southeast 375 432 22,900 694 Climbing Salt Lake Center
Thu 08:10:09 AM 43.3489 -108.1825 142° Southeast 388 447 23,700 744 Climbing Salt Lake Center
Thu 08:11:10 AM 43.2622 -108.0903 142° Southeast 393 452 24,400 694 Climbing Salt Lake Center
Thu 08:12:10 AM 43.1747 -107.9953 142° Southeast 399 459 25,100 700 Climbing Salt Lake Center
Thu 08:13:10 AM 43.0861 -107.9014 142° Southeast 404 465 25,800 600 Climbing Salt Lake Center
Thu 08:14:10 AM 42.9964 -107.8083 143° Southeast 406 467 26,300 496 Climbing Salt Lake Center
Thu 08:15:11 AM 42.8981 -107.7039 142° Southeast 410 472 26,800 496 Climbing Salt Lake Center
Thu 08:16:11 AM 42.8100 -107.6117 142° Southeast 416 479 27,300 550 Climbing Salt Lake Center
Thu 08:17:11 AM 42.7064 -107.5042 143° Southeast 419 482 27,900 545 Climbing Salt Lake Center
Thu 08:18:12 AM 42.6167 -107.4114 143° Southeast 420 483 28,400 496 Climbing Salt Lake Center
Thu 08:19:12 AM 42.5261 -107.3181 143° Southeast 424 488 28,900 500 Climbing Salt Lake Center
Thu 08:20:12 AM 42.4211 -107.2108 143° Southeast 424 488 29,400 496 Climbing Salt Lake Center
Thu 08:21:13 AM 42.3314 -107.1197 143° Southeast 421 484 29,900 397 Climbing Salt Lake Center
Thu 08:22:13 AM 42.2406 -107.0269 143° Southeast 423 487 30,200 347 Climbing Salt Lake Center
Thu 08:23:14 AM 42.1494 -106.9353 143° Southeast 424 488 30,600 397 Climbing Salt Lake Center
Thu 08:24:14 AM 42.0436 -106.8272 143° Southeast 426 490 31,000 198 Climbing Salt Lake Center
Thu 08:25:15 AM 41.9514 -106.7350 143° Southeast 429 494 31,000  Level Salt Lake Center
Thu 08:26:15 AM 41.8450 -106.6303 144° Southeast 438 504 31,000  Level Salt Lake Center
Thu 08:27:15 AM 41.7525 -106.5433 145° Southeast 431 496 31,000  Level Salt Lake Center
Thu 08:28:16 AM 41.6506 -106.4772 154° Southeast 426 490 31,000  Level Salt Lake Center
Thu 08:29:16 AM 41.5444 -106.4083 154° Southeast 423 487 31,000  Level Salt Lake Center
Thu 08:30:40 AM 41.3958 -106.3131 154° Southeast 427 491 31,000  Level Denver Center
Thu 08:31:41 AM 41.2783 -106.2250 151° Southeast 434 499 31,000  Level Denver Center
Thu 08:32:42 AM 41.1803 -106.1403 147° Southeast 437 503 31,000  Level Denver Center
Thu 08:33:43 AM 41.0856 -106.0497 144° Southeast 439 505 31,000  Level Denver Center
Thu 08:34:44 AM 40.9933 -105.9217 134° Southeast 445 512 31,000  Level Denver Center
Thu 08:35:45 AM 40.9083 -105.8075 135° Southeast 439 505 31,000 -885 Level Denver Center
Thu 08:36:46 AM 40.8269 -105.6928 133° Southeast 432 497 29,200 -1,918 Descending Denver Center
Thu 08:37:47 AM 40.7464 -105.5828 134° Southeast 421 484 27,100 -2,016 Descending Denver Center
Thu 08:38:48 AM 40.6689 -105.4778 134° Southeast 404 465 25,100 -1,820 Descending Denver Center
Thu 08:39:49 AM 40.5939 -105.3761 134° Southeast 392 451 23,400 -1,574 Descending Denver Center
Thu 08:40:50 AM 40.5242 -105.2806 134° Southeast 366 421 21,900 -1,623 Descending Denver Center
Thu 08:41:51 AM 40.4367 -105.1922 142° Southeast 355 409 20,100 -1,721 Descending Denver Center
Thu 08:42:52 AM 40.3589 -105.1186 144° Southeast 342 394 18,400 -1,525 Descending Denver Center
Thu 08:43:53 AM 40.2861 -105.0414 141° Southeast 334 384 17,000 -1,574 Descending Denver Center
Thu 08:44:54 AM 40.2100 -104.9589 140° Southeast 331 381 15,200 -1,721 Descending Denver Center
Thu 08:45:55 AM 40.1375 -104.8836 142° Southeast 331 381 13,500 -1,082 Descending Denver Center
Thu 08:46:56 AM 40.0678 -104.8086 141° Southeast 325 374 13,000 -738 Descending Denver Center
Thu 08:47:57 AM 39.9992 -104.7350 141° Southeast 319 367 12,000 -984 Descending Denver Center
Thu 08:48:58 AM 39.9736 -104.6386 109° East 295 339 11,000 -492 Descending Denver Center
Thu 08:49:59 AM 39.9725 -104.5461 91° East 256 295 11,000 -541 Level Denver Center
Thu 08:51:00 AM 39.9594 -104.4586 101° East 232 267 9,900 -1,131 Descending Denver Center
Thu 08:52:01 AM 39.9289 -104.3983 123° Southeast 225 259 8,700 -1,279 Descending Denver Center
Thu 08:53:02 AM 39.8733 -104.4181 195° South 234 269 7,300 -836 Descending Denver Center
Thu 08:54:03 AM 39.8750 -104.4914 272° West 206 237 7,000 -541 Descending Denver Center
Thu 08:55:04 AM 39.8767 -104.5583 272° West 177 204 6,200 -738 Descending Denver Center
Thu 08:56:05 AM 39.8772 -104.6117 271° West 153 176 5,500 -443 Descending Denver Center
Thu 08:57:06 AM 39.8758 -104.6517 267° West 140 161 5,300 -197 Descending Denver Center

Login

Don't have an account? Register now (free) for customized features, flight alerts, and more!